createdAt,value
2017-02-16T00:00:15.325Z,24.6
2017-02-16T00:01:15.367Z,24.6
2017-02-16T00:02:17.273Z,24.6
2017-02-16T00:03:17.348Z,24.6
2017-02-16T00:04:17.406Z,24.6
2017-02-16T00:05:15.590Z,24.6
2017-02-16T00:06:17.527Z,24.6
2017-02-16T00:07:17.495Z,24.6
2017-02-16T00:08:17.601Z,24.6
2017-02-16T00:09:17.636Z,24.6
2017-02-16T00:10:17.707Z,24.6
2017-02-16T00:11:17.759Z,24.6
2017-02-16T00:12:15.910Z,24.6
2017-02-16T00:13:15.924Z,24.6
2017-02-16T00:14:17.908Z,24.6
2017-02-16T00:15:16.100Z,24.6
2017-02-16T00:16:16.136Z,24.6
2017-02-16T00:17:18.025Z,24.6
2017-02-16T00:18:16.148Z,24.6
2017-02-16T00:19:18.095Z,24.6
2017-02-16T00:20:18.112Z,24.6
2017-02-16T00:21:18.127Z,24.6
2017-02-16T00:22:18.196Z,24.6
2017-02-16T00:23:16.335Z,24.6
2017-02-16T00:24:18.245Z,24.6
2017-02-16T00:25:18.303Z,24.6
2017-02-16T00:26:18.388Z,24.6
2017-02-16T00:27:16.520Z,24.6
2017-02-16T00:28:16.610Z,24.6
2017-02-16T00:29:16.703Z,24.6
2017-02-16T00:30:18.577Z,24.6
2017-02-16T00:31:16.772Z,24.6
2017-02-16T00:32:18.768Z,24.6
2017-02-16T00:33:16.906Z,24.6
2017-02-16T00:34:17.010Z,24.6
2017-02-16T00:35:17.065Z,24.6
2017-02-16T00:36:19.063Z,24.6
2017-02-16T00:37:19.112Z,24.6
2017-02-16T00:38:17.212Z,24.6
2017-02-16T00:39:17.259Z,24.6
2017-02-16T00:40:19.242Z,24.6
2017-02-16T00:41:17.403Z,24.6
2017-02-16T00:42:17.431Z,24.6
2017-02-16T00:43:17.528Z,24.6
2017-02-16T00:44:19.451Z,24.6
2017-02-16T00:45:17.605Z,24.6
2017-02-16T00:46:18.284Z,24.6
2017-02-16T00:47:19.539Z,24.6
2017-02-16T00:48:17.727Z,24.6
2017-02-16T00:49:19.755Z,24.6
2017-02-16T00:50:19.745Z,24.6
2017-02-16T00:51:17.858Z,24.6
2017-02-16T00:52:17.931Z,24.6
2017-02-16T00:53:19.843Z,24.6
2017-02-16T00:54:19.867Z,24.6
2017-02-16T00:55:19.920Z,24.6
2017-02-16T00:56:20.025Z,24.6
2017-02-16T00:57:19.995Z,24.6
2017-02-16T00:58:20.027Z,24.6
2017-02-16T00:59:20.057Z,24.6
2017-02-16T01:00:20.804Z,24.6
2017-02-16T01:01:18.345Z,24.6
2017-02-16T01:02:20.756Z,24.6
2017-02-16T01:03:18.375Z,24.6
2017-02-16T01:04:18.435Z,24.6
2017-02-16T01:05:18.472Z,24.6
2017-02-16T01:06:20.445Z,24.6
2017-02-16T01:07:18.581Z,24.6
2017-02-16T01:08:20.600Z,24.6
2017-02-16T01:09:20.597Z,24.6
2017-02-16T01:10:18.665Z,24.6
2017-02-16T01:11:18.755Z,24.6
2017-02-16T01:12:20.684Z,24.6
2017-02-16T01:13:20.782Z,24.6
2017-02-16T01:14:18.907Z,24.6
2017-02-16T01:15:18.954Z,24.6
2017-02-16T01:16:20.821Z,24.6
2017-02-16T01:17:18.952Z,24.6
2017-02-16T01:18:20.925Z,24.6
2017-02-16T01:19:19.112Z,24.6
2017-02-16T01:20:19.089Z,24.6
2017-02-16T01:21:21.063Z,24.6
2017-02-16T01:22:21.108Z,24.6
2017-02-16T01:23:21.175Z,24.6
2017-02-16T01:24:19.276Z,24.6
2017-02-16T01:25:21.270Z,24.6
2017-02-16T01:26:21.365Z,24.6
2017-02-16T01:27:21.368Z,24.6
2017-02-16T01:28:19.476Z,24.6
2017-02-16T01:29:19.512Z,24.6
2017-02-16T01:30:21.494Z,24.6
2017-02-16T01:31:21.571Z,24.6
2017-02-16T01:32:22.335Z,24.6
2017-02-16T01:33:21.695Z,24.6
2017-02-16T01:34:19.837Z,24.6
2017-02-16T01:35:19.882Z,24.6
2017-02-16T01:36:19.899Z,24.6
2017-02-16T01:37:20.011Z,24.6
2017-02-16T01:38:20.733Z,24.6
2017-02-16T01:39:22.660Z,24.6
2017-02-16T01:40:20.210Z,24.6
2017-02-16T01:41:22.108Z,24.6
2017-02-16T01:42:22.206Z,24.6
2017-02-16T01:43:22.333Z,24.6
2017-02-16T01:44:20.402Z,24.6
2017-02-16T01:45:22.393Z,24.6
2017-02-16T01:46:22.381Z,24.6
2017-02-16T01:47:20.559Z,24.6
2017-02-16T01:48:22.521Z,24.6
2017-02-16T01:49:20.717Z,24.6
2017-02-16T01:50:22.629Z,24.6
2017-02-16T01:51:20.808Z,24.6
2017-02-16T01:52:22.834Z,24.6
2017-02-16T01:53:22.857Z,24.6
2017-02-16T01:54:20.968Z,24.6
2017-02-16T01:55:21.031Z,24.6
2017-02-16T01:56:21.093Z,24.6
2017-02-16T01:57:22.988Z,24.6
2017-02-16T01:58:23.100Z,24.6
2017-02-16T01:59:23.165Z,24.6
2017-02-16T02:00:21.243Z,24.6
2017-02-16T02:01:21.321Z,24.6
2017-02-16T02:02:21.366Z,24.6
2017-02-16T02:03:23.275Z,24.6
2017-02-16T02:04:21.393Z,24.6
2017-02-16T02:05:23.418Z,24.6
2017-02-16T02:06:21.511Z,24.6
2017-02-16T02:07:23.527Z,24.6
2017-02-16T02:08:21.655Z,24.6
2017-02-16T02:09:21.665Z,24.6
2017-02-16T02:10:21.701Z,24.6
2017-02-16T02:11:23.604Z,24.6
2017-02-16T02:12:23.639Z,24.6
2017-02-16T02:13:22.038Z,24.6
2017-02-16T02:14:23.795Z,24.6
2017-02-16T02:15:23.835Z,24.6
2017-02-16T02:16:23.864Z,24.6
2017-02-16T02:17:23.905Z,24.6
2017-02-16T02:18:24.081Z,24.6
2017-02-16T02:19:22.312Z,24.6
2017-02-16T02:20:24.119Z,24.6
2017-02-16T02:21:22.230Z,24.6
2017-02-16T02:22:24.219Z,24.6
2017-02-16T02:23:22.357Z,24.6
2017-02-16T02:24:22.443Z,24.6
2017-02-16T02:25:24.736Z,24.6
2017-02-16T02:26:22.586Z,24.6
2017-02-16T02:27:22.619Z,24.6
2017-02-16T02:28:22.721Z,24.6
2017-02-16T02:29:22.865Z,24.6
2017-02-16T02:30:24.946Z,24.6
2017-02-16T02:31:22.919Z,24.6
2017-02-16T02:32:24.857Z,24.6
2017-02-16T02:33:24.959Z,24.6
2017-02-16T02:34:25.021Z,24.6
2017-02-16T02:35:23.212Z,24.6
2017-02-16T02:36:25.406Z,24.6
2017-02-16T02:37:23.209Z,24.6
2017-02-16T02:38:23.858Z,24.6
2017-02-16T02:39:23.354Z,24.6
2017-02-16T02:40:25.235Z,24.6
2017-02-16T02:41:23.426Z,24.6
2017-02-16T02:42:25.469Z,24.6
2017-02-16T02:43:23.417Z,24.6
2017-02-16T02:44:25.894Z,24.6
2017-02-16T02:45:25.341Z,24.6
2017-02-16T02:46:23.503Z,24.6
2017-02-16T02:47:24.024Z,24.6
2017-02-16T02:48:25.610Z,24.6
2017-02-16T02:49:23.559Z,24.6
2017-02-16T02:50:25.578Z,24.6
2017-02-16T02:51:23.706Z,24.6
2017-02-16T02:52:25.680Z,24.6
2017-02-16T02:53:23.766Z,24.6
2017-02-16T02:54:25.873Z,24.6
2017-02-16T02:55:23.833Z,24.6
2017-02-16T02:56:25.727Z,24.6
2017-02-16T02:57:26.615Z,24.6
2017-02-16T02:58:25.876Z,24.6
2017-02-16T02:59:24.071Z,24.6
2017-02-16T03:00:24.261Z,24.6
2017-02-16T03:01:24.154Z,24.6
2017-02-16T03:02:26.153Z,24.6
2017-02-16T03:03:26.160Z,24.6
2017-02-16T03:04:24.370Z,24.6
2017-02-16T03:05:24.366Z,24.6
2017-02-16T03:06:26.436Z,24.6
2017-02-16T03:07:24.467Z,24.6
2017-02-16T03:08:24.465Z,24.7
2017-02-16T03:09:26.479Z,24.6
2017-02-16T03:10:26.542Z,24.7
2017-02-16T03:11:26.523Z,24.7
2017-02-16T03:12:24.825Z,24.7
2017-02-16T03:13:24.723Z,24.7
2017-02-16T03:14:24.825Z,24.7
2017-02-16T03:15:24.839Z,24.7
2017-02-16T03:16:26.903Z,24.7
2017-02-16T03:17:24.993Z,24.7
2017-02-16T03:18:25.021Z,24.7
2017-02-16T03:19:25.059Z,24.7
2017-02-16T03:20:26.990Z,24.7
2017-02-16T03:21:25.145Z,24.7
2017-02-16T03:22:27.161Z,24.7
2017-02-16T03:23:27.195Z,24.7
2017-02-16T03:24:27.206Z,24.7
2017-02-16T03:25:25.376Z,24.7
2017-02-16T03:26:25.451Z,24.7
2017-02-16T03:27:27.346Z,24.7
2017-02-16T03:28:25.498Z,24.7
2017-02-16T03:29:25.598Z,24.7
2017-02-16T03:30:25.652Z,24.7
2017-02-16T03:31:25.763Z,24.7
2017-02-16T03:32:25.751Z,24.7
2017-02-16T03:33:25.854Z,24.7
2017-02-16T03:34:25.915Z,24.7
2017-02-16T03:35:27.895Z,24.7
2017-02-16T03:36:26.037Z,24.7
2017-02-16T03:37:26.104Z,24.7
2017-02-16T03:38:28.075Z,24.7
2017-02-16T03:39:28.126Z,24.7
2017-02-16T03:40:28.191Z,24.7
2017-02-16T03:41:26.306Z,24.7
2017-02-16T03:42:26.331Z,24.7
2017-02-16T03:43:28.335Z,24.7
2017-02-16T03:44:26.419Z,24.7
2017-02-16T03:45:28.368Z,24.7
2017-02-16T03:46:28.435Z,24.7
2017-02-16T03:47:28.407Z,24.7
2017-02-16T03:48:28.532Z,24.7
2017-02-16T03:49:26.697Z,24.7
2017-02-16T03:50:28.614Z,24.7
2017-02-16T03:51:26.764Z,24.7
2017-02-16T03:52:26.845Z,24.7
2017-02-16T03:53:26.912Z,24.7
2017-02-16T03:54:28.818Z,24.7
2017-02-16T03:55:26.896Z,24.7
2017-02-16T03:56:28.856Z,24.7
2017-02-16T03:57:28.884Z,24.7
2017-02-16T03:58:27.070Z,24.7
2017-02-16T03:59:27.070Z,24.7
2017-02-16T04:00:27.066Z,24.7
2017-02-16T04:01:29.019Z,24.7
2017-02-16T04:02:29.165Z,24.7
2017-02-16T04:03:29.292Z,24.7
2017-02-16T04:04:27.441Z,24.7
2017-02-16T04:05:27.535Z,24.7
2017-02-16T04:06:29.523Z,24.7
2017-02-16T04:07:27.637Z,24.7
2017-02-16T04:08:27.741Z,24.7
2017-02-16T04:09:29.660Z,24.7
2017-02-16T04:10:29.704Z,24.7
2017-02-16T04:11:27.868Z,24.7
2017-02-16T04:12:27.924Z,24.7
2017-02-16T04:13:27.968Z,24.7
2017-02-16T04:14:29.885Z,24.7
2017-02-16T04:15:28.013Z,24.7
2017-02-16T04:16:28.077Z,24.7
2017-02-16T04:17:30.020Z,24.7
2017-02-16T04:18:28.175Z,24.7
2017-02-16T04:19:28.231Z,24.7
2017-02-16T04:20:30.180Z,24.7
2017-02-16T04:21:28.304Z,24.7
2017-02-16T04:22:28.376Z,24.7
2017-02-16T04:23:28.455Z,24.7
2017-02-16T04:24:28.514Z,24.7
2017-02-16T04:25:28.591Z,24.7
2017-02-16T04:26:30.520Z,24.7
2017-02-16T04:27:28.701Z,24.7
2017-02-16T04:28:30.619Z,24.7
2017-02-16T04:29:28.781Z,24.7
2017-02-16T04:30:30.727Z,24.7
2017-02-16T04:31:28.860Z,24.7
2017-02-16T04:32:28.961Z,24.7
2017-02-16T04:33:28.981Z,24.7
2017-02-16T04:34:29.000Z,24.7
2017-02-16T04:35:30.973Z,24.7
2017-02-16T04:36:29.100Z,24.7
2017-02-16T04:37:29.201Z,24.7
2017-02-16T04:38:31.142Z,24.7
2017-02-16T04:39:31.210Z,24.7
2017-02-16T04:40:31.249Z,24.7
2017-02-16T04:41:31.268Z,24.7
2017-02-16T04:42:31.351Z,24.7
2017-02-16T04:43:29.495Z,24.7
2017-02-16T04:44:31.379Z,24.7
2017-02-16T04:45:30.153Z,24.7
2017-02-16T04:46:29.561Z,24.7
2017-02-16T04:47:31.454Z,24.7
2017-02-16T04:48:31.542Z,24.7
2017-02-16T04:49:29.662Z,24.7
2017-02-16T04:50:31.593Z,24.7
2017-02-16T04:51:29.720Z,24.7
2017-02-16T04:52:29.777Z,24.7
2017-02-16T04:53:31.660Z,24.7
2017-02-16T04:54:29.906Z,24.7
2017-02-16T04:55:31.896Z,24.7
2017-02-16T04:56:30.026Z,24.7
2017-02-16T04:57:31.995Z,24.7
2017-02-16T04:58:30.094Z,24.7
2017-02-16T04:59:32.113Z,24.7
2017-02-16T05:00:32.173Z,24.7
2017-02-16T05:01:30.297Z,24.7
2017-02-16T05:02:30.369Z,24.7
2017-02-16T05:03:30.434Z,24.7
2017-02-16T05:04:32.397Z,24.7
2017-02-16T05:05:32.477Z,24.7
2017-02-16T05:06:30.633Z,24.7
2017-02-16T05:07:32.591Z,24.7
2017-02-16T05:08:32.635Z,24.7
2017-02-16T05:09:32.673Z,24.7
2017-02-16T05:10:32.724Z,24.7
2017-02-16T05:11:30.923Z,24.7
2017-02-16T05:12:32.840Z,24.7
2017-02-16T05:13:30.954Z,24.7
2017-02-16T05:14:32.932Z,24.7
2017-02-16T05:15:32.993Z,24.7
2017-02-16T05:16:31.127Z,24.7
2017-02-16T05:17:33.086Z,24.7
2017-02-16T05:18:31.217Z,24.7
2017-02-16T05:19:31.293Z,24.7
2017-02-16T05:20:31.320Z,24.7
2017-02-16T05:21:33.298Z,24.7
2017-02-16T05:22:33.357Z,24.7
2017-02-16T05:23:31.475Z,24.7
2017-02-16T05:24:33.437Z,24.7
2017-02-16T05:25:31.599Z,24.7
2017-02-16T05:26:33.490Z,24.7
2017-02-16T05:27:31.636Z,24.7
2017-02-16T05:28:31.621Z,24.7
2017-02-16T05:29:31.744Z,24.7
2017-02-16T05:30:31.785Z,24.7
2017-02-16T05:31:31.874Z,24.7
2017-02-16T05:32:31.907Z,24.7
2017-02-16T05:33:32.024Z,24.7
2017-02-16T05:34:32.054Z,24.7
2017-02-16T05:35:33.998Z,24.7
2017-02-16T05:36:32.184Z,24.7
2017-02-16T05:37:32.258Z,24.7
2017-02-16T05:38:34.252Z,24.7
2017-02-16T05:39:34.229Z,24.7
2017-02-16T05:40:34.262Z,24.7
2017-02-16T05:41:34.333Z,24.7
2017-02-16T05:42:34.401Z,24.7
2017-02-16T05:43:34.507Z,24.7
2017-02-16T05:44:34.538Z,24.7
2017-02-16T05:45:32.767Z,24.7
2017-02-16T05:46:32.842Z,24.7
2017-02-16T05:47:32.850Z,24.7
2017-02-16T05:48:34.824Z,24.7
2017-02-16T05:49:34.157Z,24.7
2017-02-16T05:50:34.949Z,24.7
2017-02-16T05:51:35.057Z,24.7
2017-02-16T05:52:35.098Z,24.7
2017-02-16T05:53:35.227Z,24.7
2017-02-16T05:54:33.348Z,24.7
2017-02-16T05:55:33.358Z,24.7
2017-02-16T05:56:33.416Z,24.7
2017-02-16T05:57:33.477Z,24.7
2017-02-16T05:58:33.515Z,24.7
2017-02-16T05:59:33.535Z,24.7
2017-02-16T06:00:33.639Z,24.7
2017-02-16T06:01:33.668Z,24.7
2017-02-16T06:02:35.607Z,24.7
2017-02-16T06:03:35.637Z,24.7
2017-02-16T06:04:35.699Z,24.7
2017-02-16T06:05:33.866Z,24.7
2017-02-16T06:06:33.862Z,24.7
2017-02-16T06:07:33.931Z,24.7
2017-02-16T06:08:33.948Z,24.7
2017-02-16T06:09:33.969Z,24.7
2017-02-16T06:10:35.920Z,24.7
2017-02-16T06:11:35.941Z,24.7
2017-02-16T06:12:34.127Z,24.7
2017-02-16T06:13:36.058Z,24.7
2017-02-16T06:14:34.172Z,24.7
2017-02-16T06:15:34.235Z,24.7
2017-02-16T06:16:34.618Z,24.7
2017-02-16T06:17:35.169Z,24.7
2017-02-16T06:18:35.060Z,24.7
2017-02-16T06:19:36.621Z,24.7
2017-02-16T06:20:36.051Z,24.7
2017-02-16T06:21:37.955Z,24.7
2017-02-16T06:22:36.389Z,24.7
2017-02-16T06:23:35.477Z,24.7
2017-02-16T06:24:36.390Z,24.7
2017-02-16T06:25:38.428Z,24.7
2017-02-16T06:26:37.475Z,24.7
2017-02-16T06:27:37.037Z,24.7
2017-02-16T06:28:38.555Z,24.7
2017-02-16T06:29:38.170Z,24.7
2017-02-16T06:30:38.265Z,24.7
2017-02-16T06:31:38.050Z,24.7
2017-02-16T06:32:36.244Z,24.7
2017-02-16T06:33:36.521Z,24.7
2017-02-16T06:34:38.336Z,24.7
2017-02-16T06:35:38.084Z,24.7
2017-02-16T06:36:37.494Z,24.7
2017-02-16T06:37:36.021Z,24.7
2017-02-16T06:38:37.276Z,24.7
2017-02-16T06:39:37.305Z,24.7
2017-02-16T06:40:35.415Z,24.7
2017-02-16T06:41:35.492Z,24.7
2017-02-16T06:42:35.570Z,24.7
2017-02-16T06:43:37.603Z,24.7
2017-02-16T06:44:37.810Z,24.7
2017-02-16T06:45:37.661Z,24.7
2017-02-16T06:46:37.739Z,24.7
2017-02-16T06:47:37.749Z,24.7
2017-02-16T06:48:35.898Z,24.7
2017-02-16T06:49:37.802Z,24.7
2017-02-16T06:50:35.984Z,24.7
2017-02-16T06:51:37.816Z,24.8
2017-02-16T06:52:37.826Z,24.9
2017-02-16T06:53:35.968Z,25.1
2017-02-16T06:54:36.053Z,25.3
2017-02-16T06:55:36.088Z,25.5
2017-02-16T06:56:38.041Z,25.7
2017-02-16T06:57:36.209Z,25.9
2017-02-16T06:58:36.881Z,26.2
2017-02-16T06:59:38.255Z,26.4
2017-02-16T07:00:38.287Z,26.7
2017-02-16T07:01:36.431Z,26.9
2017-02-16T07:02:38.489Z,27.1
2017-02-16T07:03:38.471Z,27.3
2017-02-16T07:04:38.627Z,27.5
2017-02-16T07:05:38.697Z,27.7
2017-02-16T07:06:38.706Z,27.9
2017-02-16T07:07:38.759Z,28.1
2017-02-16T07:08:38.815Z,28.2
2017-02-16T07:09:38.941Z,28.3
2017-02-16T07:10:38.908Z,28.5
2017-02-16T07:11:37.067Z,28.6
2017-02-16T07:12:37.727Z,28.8
2017-02-16T07:13:38.987Z,29
2017-02-16T07:14:39.671Z,29.1
2017-02-16T07:15:39.225Z,29.2
2017-02-16T07:16:39.189Z,29.4
2017-02-16T07:17:39.340Z,29.5
2017-02-16T07:18:39.356Z,29.7
2017-02-16T07:19:39.368Z,30
2017-02-16T07:20:37.500Z,30
2017-02-16T07:21:37.566Z,30.2
2017-02-16T07:22:39.594Z,30.3
2017-02-16T07:23:37.770Z,30.5
2017-02-16T07:24:37.802Z,30.6
2017-02-16T07:25:40.389Z,30.7
2017-02-16T07:26:37.867Z,30.8
2017-02-16T07:27:39.927Z,30.8
2017-02-16T07:28:37.965Z,30.9
2017-02-16T07:29:37.987Z,31
2017-02-16T07:30:38.074Z,31
2017-02-16T07:31:40.071Z,31.1
2017-02-16T07:32:40.127Z,31.1
2017-02-16T07:33:38.246Z,31.1
2017-02-16T07:34:38.279Z,31.2
2017-02-16T07:35:38.388Z,31.2
2017-02-16T07:36:38.467Z,31.2
2017-02-16T07:37:40.437Z,31.2
2017-02-16T07:38:40.433Z,31.3
2017-02-16T07:39:38.609Z,31.3
2017-02-16T07:40:38.659Z,31.4
2017-02-16T07:41:38.755Z,31.5
2017-02-16T07:42:40.658Z,31.5
2017-02-16T07:43:38.911Z,31.6
2017-02-16T07:44:40.834Z,31.5
2017-02-16T07:45:42.162Z,31.5
2017-02-16T07:46:40.356Z,31.6
2017-02-16T07:47:41.781Z,31.6
2017-02-16T07:48:41.232Z,31.6
2017-02-16T07:49:39.315Z,31.6
2017-02-16T07:50:39.316Z,31.6
2017-02-16T07:51:40.248Z,31.6
2017-02-16T07:52:41.285Z,31.5
2017-02-16T07:53:41.383Z,31.5
2017-02-16T07:54:41.411Z,31.6
2017-02-16T07:55:41.451Z,31.5
2017-02-16T07:56:41.455Z,31.6
2017-02-16T07:57:39.893Z,31.7
2017-02-16T07:58:39.655Z,31.7
2017-02-16T07:59:39.746Z,31.8
2017-02-16T08:00:41.717Z,31.9
2017-02-16T08:01:39.678Z,31.9
2017-02-16T08:02:39.789Z,31.9
2017-02-16T08:03:41.704Z,31.9
2017-02-16T08:04:39.890Z,31.9
2017-02-16T08:05:39.961Z,31.8
2017-02-16T08:06:41.914Z,31.8
2017-02-16T08:07:40.097Z,31.7
2017-02-16T08:08:40.104Z,31.7
2017-02-16T08:09:42.052Z,31.7
2017-02-16T08:10:40.234Z,31.6
2017-02-16T08:11:40.187Z,31.6
2017-02-16T08:12:40.293Z,31.6
2017-02-16T08:13:40.291Z,31.5
2017-02-16T08:14:40.407Z,31.5
2017-02-16T08:15:40.398Z,31.5
2017-02-16T08:16:42.342Z,31.4
2017-02-16T08:17:42.503Z,31.4
2017-02-16T08:18:43.191Z,31.4
2017-02-16T08:19:40.675Z,31.4
2017-02-16T08:20:41.532Z,31.4
2017-02-16T08:21:43.211Z,31.3
2017-02-16T08:22:40.724Z,31.3
2017-02-16T08:23:42.668Z,31.3
2017-02-16T08:24:40.861Z,31.2
2017-02-16T08:25:42.835Z,31.2
2017-02-16T08:26:44.248Z,31.1
2017-02-16T08:27:43.019Z,31.1
2017-02-16T08:28:41.153Z,31
2017-02-16T08:29:43.051Z,31
2017-02-16T08:30:41.172Z,31
2017-02-16T08:31:43.119Z,30.9
2017-02-16T08:32:41.232Z,30.9
2017-02-16T08:33:41.286Z,30.9
2017-02-16T08:34:41.323Z,30.9
2017-02-16T08:35:43.233Z,30.9
2017-02-16T08:36:41.445Z,30.9
2017-02-16T08:37:43.414Z,30.9
2017-02-16T08:38:41.551Z,30.9
2017-02-16T08:39:43.430Z,30.9
2017-02-16T08:40:43.529Z,30.9
2017-02-16T08:41:43.508Z,30.9
2017-02-16T08:42:41.676Z,30.8
2017-02-16T08:43:43.572Z,30.8
2017-02-16T08:44:41.807Z,30.7
2017-02-16T08:45:43.763Z,30.7
2017-02-16T08:46:41.992Z,30.6
2017-02-16T08:47:43.886Z,30.6
2017-02-16T08:48:42.058Z,30.6
2017-02-16T08:49:42.729Z,30.6
2017-02-16T08:50:44.122Z,30.6
2017-02-16T08:51:44.160Z,30.7
2017-02-16T08:52:42.299Z,30.7
2017-02-16T08:53:44.223Z,30.7
2017-02-16T08:54:44.228Z,30.7
2017-02-16T08:55:44.213Z,30.7
2017-02-16T08:56:42.405Z,30.7
2017-02-16T08:57:42.466Z,30.7
2017-02-16T08:58:42.473Z,30.8
2017-02-16T08:59:43.214Z,30.8
2017-02-16T09:00:44.511Z,30.8
2017-02-16T09:01:46.125Z,30.9
2017-02-16T09:02:44.592Z,30.9
2017-02-16T09:03:44.628Z,30.9
2017-02-16T09:04:42.912Z,31
2017-02-16T09:05:44.873Z,31
2017-02-16T09:06:44.867Z,31.1
2017-02-16T09:07:44.902Z,31.1
2017-02-16T09:08:45.051Z,31.1
2017-02-16T09:09:43.038Z,31.1
2017-02-16T09:10:44.375Z,31.1
2017-02-16T09:11:45.112Z,31
2017-02-16T09:12:44.997Z,31
2017-02-16T09:13:45.124Z,31
2017-02-16T09:15:43.252Z,31.1
2017-02-16T09:16:45.272Z,31.1
2017-02-16T09:17:45.220Z,31.1
2017-02-16T09:18:45.335Z,31.1
2017-02-16T09:19:45.387Z,31.1
2017-02-16T09:20:43.531Z,31.2
2017-02-16T09:21:45.394Z,31.2
2017-02-16T09:22:43.607Z,31.2
2017-02-16T09:23:45.567Z,31.2
2017-02-16T09:24:43.763Z,31.3
2017-02-16T09:25:46.319Z,31.3
2017-02-16T09:26:46.899Z,31.3
2017-02-16T09:27:45.753Z,31.3
2017-02-16T09:28:43.910Z,31.3
2017-02-16T09:29:45.848Z,31.4
2017-02-16T09:30:45.977Z,31.4
2017-02-16T09:31:45.912Z,31.5
2017-02-16T09:32:46.744Z,31.4
2017-02-16T09:33:44.801Z,31.4
2017-02-16T09:34:45.609Z,31.3
2017-02-16T09:35:44.231Z,31.2
2017-02-16T09:36:46.918Z,31.2
2017-02-16T09:37:44.875Z,31.1
2017-02-16T09:38:44.343Z,31
2017-02-16T09:39:46.300Z,30.9
2017-02-16T09:40:44.413Z,30.8
2017-02-16T09:41:44.470Z,30.7
2017-02-16T09:42:46.462Z,30.6
2017-02-16T09:43:47.205Z,30.5
2017-02-16T09:44:44.645Z,30.4
2017-02-16T09:45:46.677Z,30.3
2017-02-16T09:46:44.773Z,30.2
2017-02-16T09:47:44.806Z,30.1
2017-02-16T09:48:46.251Z,30
2017-02-16T09:49:46.143Z,29.9
2017-02-16T09:50:45.434Z,29.8
2017-02-16T09:51:46.806Z,29.8
2017-02-16T09:52:44.969Z,29.7
2017-02-16T09:53:45.743Z,29.6
2017-02-16T09:54:45.142Z,29.5
2017-02-16T09:55:47.054Z,29.5
2017-02-16T09:56:47.111Z,29.4
2017-02-16T09:57:45.255Z,29.3
2017-02-16T09:58:45.279Z,29.3
2017-02-16T09:59:45.859Z,29.2
2017-02-16T10:00:45.330Z,29.1
2017-02-16T10:01:45.398Z,29.1
2017-02-16T10:02:45.475Z,29
2017-02-16T10:03:47.435Z,29
2017-02-16T10:04:47.417Z,29
2017-02-16T10:05:45.648Z,29
2017-02-16T10:06:47.488Z,29
2017-02-16T10:07:45.707Z,29
2017-02-16T10:08:47.791Z,29
2017-02-16T10:09:47.689Z,29
2017-02-16T10:10:48.429Z,29
2017-02-16T10:11:47.838Z,29
2017-02-16T10:12:47.846Z,29
2017-02-16T10:13:46.068Z,29
2017-02-16T10:14:46.672Z,29.1
2017-02-16T10:15:48.023Z,29.1
2017-02-16T10:16:46.242Z,29.1
2017-02-16T10:17:46.218Z,29.1
2017-02-16T10:18:48.158Z,29.1
2017-02-16T10:19:46.465Z,29.1
2017-02-16T10:20:46.363Z,29.1
2017-02-16T10:21:48.332Z,29.1
2017-02-16T10:23:15.453Z,29.1
2017-02-16T10:24:15.508Z,29.1
2017-02-16T10:25:15.591Z,29.1
2017-02-16T10:26:15.635Z,29.1
2017-02-16T10:27:15.718Z,29
2017-02-16T10:28:15.801Z,29
2017-02-16T10:29:15.823Z,29
2017-02-16T10:30:13.928Z,29
2017-02-16T10:31:13.980Z,29
2017-02-16T10:32:15.993Z,29
2017-02-16T10:33:16.159Z,29
2017-02-16T10:34:16.104Z,29
2017-02-16T10:35:16.146Z,29
2017-02-16T10:36:14.254Z,29
2017-02-16T10:37:16.229Z,29
2017-02-16T10:38:16.278Z,29
2017-02-16T10:39:14.361Z,29
2017-02-16T10:40:16.347Z,29
2017-02-16T10:41:15.306Z,29.1
2017-02-16T10:42:16.488Z,29
2017-02-16T10:43:16.606Z,29
2017-02-16T10:44:16.581Z,29
2017-02-16T10:45:17.204Z,29
2017-02-16T10:46:17.336Z,29
2017-02-16T10:47:17.856Z,29
2017-02-16T10:48:16.751Z,29
2017-02-16T10:49:16.840Z,29
2017-02-16T10:50:15.019Z,29
2017-02-16T10:51:16.482Z,29
2017-02-16T10:52:15.130Z,29
2017-02-16T10:53:15.109Z,29
2017-02-16T10:54:17.153Z,29
2017-02-16T10:55:17.751Z,29
2017-02-16T10:56:15.267Z,29
2017-02-16T10:57:18.229Z,29
2017-02-16T10:58:17.216Z,29
2017-02-16T10:59:15.359Z,29
2017-02-16T11:00:15.426Z,29
2017-02-16T11:01:15.433Z,29
2017-02-16T11:02:15.519Z,29
2017-02-16T11:03:17.466Z,29
2017-02-16T11:04:15.552Z,29
2017-02-16T11:05:17.516Z,29
2017-02-16T11:06:15.652Z,29
2017-02-16T11:07:17.566Z,29
2017-02-16T11:08:17.657Z,29
2017-02-16T11:09:18.306Z,29
2017-02-16T11:10:15.755Z,29
2017-02-16T11:11:15.810Z,29
2017-02-16T11:12:17.720Z,29
2017-02-16T11:13:17.751Z,29
2017-02-16T11:14:16.539Z,29
2017-02-16T11:15:15.904Z,29
2017-02-16T11:16:17.837Z,29
2017-02-16T11:17:17.934Z,29
2017-02-16T11:18:17.900Z,29
2017-02-16T11:19:16.016Z,29
2017-02-16T11:20:17.937Z,29
2017-02-16T11:21:17.932Z,29
2017-02-16T11:22:17.944Z,29
2017-02-16T11:23:16.143Z,29
2017-02-16T11:24:16.205Z,29
2017-02-16T11:25:16.327Z,29
2017-02-16T11:26:16.272Z,29
2017-02-16T11:27:16.347Z,29
2017-02-16T11:28:16.376Z,29
2017-02-16T11:29:16.414Z,29
2017-02-16T11:30:16.453Z,29
2017-02-16T11:31:16.525Z,29
2017-02-16T11:32:16.580Z,29
2017-02-16T11:33:18.560Z,29
2017-02-16T11:34:18.606Z,29
2017-02-16T11:35:18.647Z,28.9
2017-02-16T11:36:16.779Z,28.9
2017-02-16T11:37:18.896Z,28.9
2017-02-16T11:38:18.797Z,28.9
2017-02-16T11:39:17.012Z,28.9
2017-02-16T11:40:18.932Z,28.9
2017-02-16T11:41:17.043Z,28.9
2017-02-16T11:42:18.964Z,28.9
2017-02-16T11:43:17.384Z,28.9
2017-02-16T11:44:17.218Z,28.9
2017-02-16T11:45:18.018Z,28.9
2017-02-16T11:46:19.228Z,28.9
2017-02-16T11:47:17.997Z,28.9
2017-02-16T11:48:20.718Z,28.9
2017-02-16T11:49:19.704Z,28.9
2017-02-16T11:50:20.077Z,28.9
2017-02-16T11:51:17.591Z,28.9
2017-02-16T11:52:17.746Z,28.9
2017-02-16T11:53:17.756Z,28.9
2017-02-16T11:54:19.674Z,28.9
2017-02-16T11:55:19.960Z,28.9
2017-02-16T11:56:18.504Z,28.9
2017-02-16T11:57:19.839Z,28.9
2017-02-16T11:58:19.872Z,28.9
2017-02-16T11:59:18.064Z,28.9
2017-02-16T12:00:18.050Z,28.9
2017-02-16T12:01:20.257Z,28.9
2017-02-16T12:02:18.138Z,28.9
2017-02-16T12:03:18.186Z,28.9
2017-02-16T12:04:20.109Z,28.9
2017-02-16T12:05:18.268Z,28.9
2017-02-16T12:06:20.212Z,28.9
2017-02-16T12:07:18.521Z,28.9
2017-02-16T12:08:18.444Z,28.9
2017-02-16T12:09:18.447Z,28.8
2017-02-16T12:10:18.440Z,28.8
2017-02-16T12:11:20.431Z,28.8
2017-02-16T12:12:18.596Z,28.8
2017-02-16T12:13:20.665Z,28.8
2017-02-16T12:14:20.479Z,28.8
2017-02-16T12:15:20.561Z,28.8
2017-02-16T12:16:20.710Z,28.8
2017-02-16T12:17:18.842Z,28.9
2017-02-16T12:18:20.975Z,28.9
2017-02-16T12:19:18.960Z,28.9
2017-02-16T12:20:21.011Z,28.9
2017-02-16T12:21:20.993Z,28.9
2017-02-16T12:22:21.046Z,28.9
2017-02-16T12:23:22.376Z,28.9
2017-02-16T12:24:21.300Z,28.9
2017-02-16T12:25:19.294Z,28.9
2017-02-16T12:26:19.359Z,28.9
2017-02-16T12:27:20.093Z,28.9
2017-02-16T12:28:19.457Z,28.9
2017-02-16T12:29:19.496Z,28.9
2017-02-16T12:30:21.603Z,29
2017-02-16T12:31:22.210Z,29
2017-02-16T12:32:21.551Z,29
2017-02-16T12:33:21.593Z,29
2017-02-16T12:34:21.644Z,29
2017-02-16T12:35:22.502Z,29.1
2017-02-16T12:36:21.801Z,29.1
2017-02-16T12:37:22.014Z,29.1
2017-02-16T12:38:20.153Z,29.1
2017-02-16T12:39:21.994Z,29.1
2017-02-16T12:40:19.982Z,29.2
2017-02-16T12:41:22.140Z,29.2
2017-02-16T12:42:19.981Z,29.2
2017-02-16T12:43:19.998Z,29.2
2017-02-16T12:44:20.179Z,29.2
2017-02-16T12:45:22.131Z,29.2
2017-02-16T12:46:22.304Z,29.2
2017-02-16T12:47:22.511Z,29.2
2017-02-16T12:48:22.987Z,29.2
2017-02-16T12:49:22.372Z,29.2
2017-02-16T12:50:22.394Z,29.2
2017-02-16T12:51:21.211Z,29.2
2017-02-16T12:52:20.581Z,29.2
2017-02-16T12:53:22.632Z,29.2
2017-02-16T12:54:20.608Z,29.2
2017-02-16T12:55:22.595Z,29.2
2017-02-16T12:56:20.826Z,29.3
2017-02-16T12:57:22.812Z,29.3
2017-02-16T12:58:22.867Z,29.3
2017-02-16T12:59:23.138Z,29.3
2017-02-16T13:00:20.996Z,29.3
2017-02-16T13:01:21.020Z,29.3
2017-02-16T13:02:21.075Z,29.3
2017-02-16T13:03:21.221Z,29.3
2017-02-16T13:04:23.153Z,29.3
2017-02-16T13:05:21.523Z,29.3
2017-02-16T13:06:23.245Z,29.3
2017-02-16T13:07:21.403Z,29.3
2017-02-16T13:08:21.351Z,29.3
2017-02-16T13:09:21.515Z,29.3
2017-02-16T13:10:23.427Z,29.3
2017-02-16T13:11:23.790Z,29.3
2017-02-16T13:12:21.703Z,29.3
2017-02-16T13:13:21.682Z,29.3
2017-02-16T13:14:24.299Z,29.3
2017-02-16T13:15:23.665Z,29.3
2017-02-16T13:16:23.801Z,29.3
2017-02-16T13:17:24.030Z,29.3
2017-02-16T13:18:22.022Z,29.4
2017-02-16T13:19:24.008Z,29.4
2017-02-16T13:20:24.022Z,29.4
2017-02-16T13:21:24.040Z,29.4
2017-02-16T13:22:22.215Z,29.4
2017-02-16T13:23:22.475Z,29.4
2017-02-16T13:24:22.303Z,29.4
2017-02-16T13:25:24.265Z,29.4
2017-02-16T13:26:24.341Z,29.3
2017-02-16T13:27:22.465Z,29.4